createdAt,value
2023-05-21T00:01:54.243Z,100.00
2023-05-21T00:04:20.783Z,100.00
2023-05-21T00:06:47.374Z,100.00
2023-05-21T00:09:13.966Z,100.00
2023-05-21T00:11:40.714Z,100.00
2023-05-21T00:14:07.381Z,100.00
2023-05-21T00:16:33.983Z,100.00
2023-05-21T00:19:00.603Z,100.00
2023-05-21T00:21:27.136Z,100.00
2023-05-21T00:23:56.935Z,100.00
2023-05-21T00:26:26.435Z,100.00
2023-05-21T00:28:53.062Z,100.00
2023-05-21T00:31:19.687Z,100.00
2023-05-21T00:33:46.302Z,100.00
2023-05-21T00:36:14.419Z,100.00
2023-05-21T00:38:44.328Z,100.00
2023-05-21T00:41:11.142Z,100.00
2023-05-21T00:43:40.378Z,100.00
2023-05-21T00:46:12.086Z,100.00
2023-05-21T00:48:39.808Z,100.00
2023-05-21T00:51:06.544Z,100.00
2023-05-21T00:53:35.099Z,100.00
2023-05-21T00:56:02.708Z,100.00
2023-05-21T00:58:29.868Z,100.00
2023-05-21T01:00:56.682Z,100.00
2023-05-21T01:03:23.662Z,100.00
2023-05-21T01:05:53.433Z,100.00
2023-05-21T01:08:23.610Z,100.00
2023-05-21T01:10:50.686Z,100.00
2023-05-21T01:13:17.930Z,100.00
2023-05-21T01:15:45.540Z,100.00
2023-05-21T01:18:14.368Z,100.00
2023-05-21T01:20:42.531Z,100.00
2023-05-21T01:23:09.193Z,100.00
2023-05-21T01:25:38.654Z,100.00
2023-05-21T01:29:00.832Z,100.00
2023-05-21T01:31:42.527Z,100.00
2023-05-21T01:34:12.361Z,100.00
2023-05-21T01:36:43.697Z,100.00
2023-05-21T01:39:19.096Z,100.00
2023-05-21T01:41:47.852Z,100.00
2023-05-21T01:44:18.378Z,100.00
2023-05-21T01:46:47.567Z,100.00
2023-05-21T01:49:15.873Z,100.00
2023-05-21T01:51:43.070Z,100.00
2023-05-21T01:54:09.744Z,100.00
2023-05-21T01:56:37.075Z,100.00
2023-05-21T01:59:03.645Z,100.00
2023-05-21T02:01:30.624Z,100.00
2023-05-21T02:03:58.156Z,100.00
2023-05-21T02:06:24.891Z,100.00
2023-05-21T02:08:52.072Z,100.00
2023-05-21T02:11:18.642Z,100.00
2023-05-21T02:13:46.205Z,100.00
2023-05-21T02:16:14.979Z,100.00
2023-05-21T02:18:46.413Z,100.00
2023-05-21T02:21:13.057Z,100.00
2023-05-21T02:23:39.684Z,100.00
2023-05-21T02:26:06.447Z,100.00
2023-05-21T02:28:34.120Z,100.00
2023-05-21T02:31:01.200Z,100.00
2023-05-21T02:33:27.826Z,100.00
2023-05-21T02:35:54.368Z,100.00
2023-05-21T02:38:23.118Z,100.00
2023-05-21T02:40:51.093Z,100.00
2023-05-21T02:43:17.729Z,100.00
2023-05-21T02:45:44.323Z,100.00
2023-05-21T02:48:11.494Z,100.00
2023-05-21T02:50:38.176Z,100.00
2023-05-21T02:53:04.734Z,100.00
2023-05-21T02:55:31.342Z,100.00
2023-05-21T02:57:57.912Z,100.00
2023-05-21T03:00:24.460Z,100.00
2023-05-21T03:02:51.180Z,100.00
2023-05-21T03:05:17.805Z,100.00
2023-05-21T03:07:44.395Z,100.00
2023-05-21T03:10:11.045Z,100.00
2023-05-21T03:12:38.178Z,100.00
2023-05-21T03:15:05.248Z,100.00
2023-05-21T03:17:32.228Z,100.00
2023-05-21T03:19:58.853Z,100.00
2023-05-21T03:22:25.405Z,100.00
2023-05-21T03:24:53.539Z,100.00
2023-05-21T03:27:20.112Z,100.00
2023-05-21T03:29:46.703Z,100.00
2023-05-21T03:32:14.028Z,100.00
2023-05-21T03:34:40.773Z,100.00
2023-05-21T03:37:07.326Z,100.00
2023-05-21T03:39:33.925Z,100.00
2023-05-21T03:42:00.494Z,100.00
2023-05-21T03:44:27.150Z,100.00
2023-05-21T03:46:53.673Z,100.00
2023-05-21T03:49:20.807Z,100.00
2023-05-21T03:51:47.356Z,100.00
2023-05-21T03:54:13.917Z,100.00
2023-05-21T03:56:40.596Z,100.00
2023-05-21T03:59:07.257Z,100.00
2023-05-21T04:01:34.014Z,100.00
2023-05-21T04:04:00.827Z,100.00
2023-05-21T04:06:28.096Z,100.00
2023-05-21T04:08:54.664Z,100.00
2023-05-21T04:11:21.223Z,100.00
2023-05-21T04:13:48.204Z,100.00
2023-05-21T04:16:18.996Z,100.00
2023-05-21T04:18:46.975Z,100.00
2023-05-21T04:21:13.755Z,100.00
2023-05-21T04:23:40.385Z,100.00
2023-05-21T04:26:07.712Z,100.00
2023-05-21T04:28:35.484Z,100.00
2023-05-21T04:31:02.161Z,100.00
2023-05-21T04:33:28.888Z,100.00
2023-05-21T04:35:55.559Z,100.00
2023-05-21T04:38:22.150Z,100.00
2023-05-21T04:40:51.948Z,100.00
2023-05-21T04:43:25.527Z,100.00
2023-05-21T04:45:54.961Z,100.00
2023-05-21T04:48:24.699Z,100.00
2023-05-21T04:50:52.074Z,100.00
2023-05-21T04:53:18.694Z,100.00
2023-05-21T04:55:46.698Z,100.00
2023-05-21T04:58:13.623Z,100.00
2023-05-21T05:00:42.224Z,100.00
2023-05-21T05:03:08.973Z,100.00
2023-05-21T05:05:35.886Z,100.00
2023-05-21T05:08:02.839Z,100.00
2023-05-21T05:10:29.592Z,100.00
2023-05-21T05:12:56.138Z,100.00
2023-05-21T05:15:30.982Z,100.00
2023-05-21T05:18:12.168Z,100.00
2023-05-21T05:20:38.919Z,100.00
2023-05-21T05:23:05.532Z,100.00
2023-05-21T05:25:33.087Z,100.00
2023-05-21T05:27:59.793Z,100.00
2023-05-21T05:30:26.346Z,100.00
2023-05-21T05:32:52.939Z,100.00
2023-05-21T05:35:19.694Z,100.00
2023-05-21T05:37:46.290Z,100.00
2023-05-21T05:40:12.880Z,100.00
2023-05-21T05:42:39.519Z,100.00
2023-05-21T05:45:06.759Z,100.00
2023-05-21T05:47:33.380Z,100.00
2023-05-21T05:50:02.250Z,99.59
2023-05-21T05:52:32.080Z,98.35
2023-05-21T05:54:58.691Z,97.42
2023-05-21T05:57:25.208Z,97.23
2023-05-21T05:59:51.753Z,98.38
2023-05-21T06:02:18.459Z,98.69
2023-05-21T06:04:45.004Z,98.79
2023-05-21T06:07:11.547Z,98.34
2023-05-21T06:09:38.981Z,97.65
2023-05-21T06:12:07.076Z,97.53
2023-05-21T06:14:33.846Z,97.24
2023-05-21T06:17:00.458Z,95.87
2023-05-21T06:19:27.043Z,95.03
2023-05-21T06:21:53.649Z,93.94
2023-05-21T06:24:21.200Z,92.28
2023-05-21T06:26:47.747Z,91.25
2023-05-21T06:29:15.504Z,90.38
2023-05-21T06:31:42.212Z,88.59
2023-05-21T06:34:08.790Z,84.12
2023-05-21T06:36:35.449Z,81.99
2023-05-21T06:39:03.241Z,81.18
2023-05-21T06:41:29.900Z,82.61
2023-05-21T06:43:56.818Z,83.58
2023-05-21T06:46:23.429Z,83.92
2023-05-21T06:48:50.118Z,85.94
2023-05-21T06:51:16.700Z,86.48
2023-05-21T06:53:43.296Z,85.05
2023-05-21T06:56:09.828Z,86.04
2023-05-21T06:58:36.492Z,84.40
2023-05-21T07:01:03.170Z,80.75
2023-05-21T07:03:29.872Z,79.75
2023-05-21T07:05:57.575Z,77.66
2023-05-21T07:08:24.344Z,75.95
2023-05-21T07:10:50.971Z,72.79
2023-05-21T07:13:17.617Z,70.28
2023-05-21T07:15:44.194Z,65.93
2023-05-21T07:18:12.085Z,64.35
2023-05-21T07:20:38.931Z,60.06
2023-05-21T07:23:05.462Z,54.30
2023-05-21T07:25:32.001Z,51.35
2023-05-21T07:27:58.589Z,50.12
2023-05-21T07:30:25.210Z,50.06
2023-05-21T07:32:52.011Z,47.59
2023-05-21T07:35:19.567Z,47.98
2023-05-21T07:37:46.733Z,44.34
2023-05-21T07:40:13.827Z,41.91
2023-05-21T07:42:42.854Z,38.82
2023-05-21T07:45:09.806Z,36.89
2023-05-21T07:47:36.403Z,36.37
2023-05-21T07:50:03.206Z,35.98
2023-05-21T07:52:29.854Z,35.40
2023-05-21T07:54:56.398Z,35.70
2023-05-21T07:57:23.392Z,35.74
2023-05-21T07:59:49.940Z,35.46
2023-05-21T08:02:16.705Z,36.22
2023-05-21T08:04:44.481Z,37.60
2023-05-21T08:07:11.201Z,41.07
2023-05-21T08:09:37.841Z,44.37
2023-05-21T08:12:04.636Z,43.18
2023-05-21T08:14:31.235Z,39.43
2023-05-21T08:16:57.880Z,39.96
2023-05-21T08:19:24.431Z,34.68
2023-05-21T08:21:52.856Z,34.08
2023-05-21T08:24:19.751Z,34.44
2023-05-21T08:26:47.495Z,35.13
2023-05-21T08:29:14.140Z,34.51
2023-05-21T08:31:40.753Z,34.08
2023-05-21T08:34:07.330Z,34.27
2023-05-21T08:36:33.949Z,33.10
2023-05-21T08:39:00.478Z,29.62
2023-05-21T08:41:30.850Z,29.24
2023-05-21T08:43:58.224Z,27.63
2023-05-21T08:46:26.628Z,27.41
2023-05-21T08:48:55.079Z,28.38
2023-05-21T08:51:22.654Z,29.73
2023-05-21T08:53:50.568Z,27.92
2023-05-21T08:56:18.183Z,27.94
2023-05-21T08:58:46.740Z,28.89
2023-05-21T09:01:13.415Z,26.02
2023-05-21T09:03:41.101Z,26.09
2023-05-21T09:06:11.420Z,25.43
2023-05-21T09:08:42.476Z,27.09
2023-05-21T09:11:09.017Z,26.48
2023-05-21T09:13:38.964Z,26.06
2023-05-21T09:16:07.098Z,25.99
2023-05-21T09:18:33.751Z,25.40
2023-05-21T09:21:23.930Z,24.31
2023-05-21T09:23:57.772Z,24.05
2023-05-21T09:26:25.735Z,24.88
2023-05-21T09:28:57.752Z,24.47
2023-05-21T09:31:25.932Z,22.98
2023-05-21T09:33:52.926Z,23.08
2023-05-21T09:36:22.278Z,21.48
2023-05-21T09:38:50.373Z,22.30
2023-05-21T09:41:21.172Z,22.01
2023-05-21T09:43:48.986Z,21.73
2023-05-21T09:46:15.608Z,21.20
2023-05-21T09:48:43.222Z,21.67
2023-05-21T09:51:14.081Z,20.33
2023-05-21T09:53:49.671Z,20.02
2023-05-21T09:56:19.410Z,20.86
2023-05-21T09:58:46.504Z,20.83
2023-05-21T10:01:13.646Z,20.78
2023-05-21T10:03:41.606Z,21.08
2023-05-21T10:06:10.169Z,21.11
2023-05-21T10:08:41.267Z,20.94
2023-05-21T10:11:09.123Z,21.97
2023-05-21T10:13:41.678Z,21.35
2023-05-21T10:16:08.555Z,21.82
2023-05-21T10:18:37.365Z,21.70
2023-05-21T10:21:04.967Z,21.16
2023-05-21T10:23:32.101Z,20.17
2023-05-21T10:25:59.899Z,19.52
2023-05-21T10:28:31.313Z,20.25
2023-05-21T10:30:57.918Z,20.41
2023-05-21T10:33:25.686Z,20.30
2023-05-21T10:35:54.459Z,20.84
2023-05-21T10:38:21.224Z,20.77
2023-05-21T10:40:49.162Z,20.87
2023-05-21T10:43:53.179Z,21.30
2023-05-21T10:46:32.055Z,20.03
2023-05-21T10:49:16.616Z,20.99
2023-05-21T10:51:52.229Z,22.01
2023-05-21T10:54:38.715Z,22.04
2023-05-21T10:57:39.975Z,19.99
2023-05-21T11:00:09.646Z,20.16
2023-05-21T11:02:37.014Z,20.80
2023-05-21T11:05:04.582Z,20.33
2023-05-21T11:07:59.056Z,19.06
2023-05-21T11:10:38.790Z,19.29
2023-05-21T11:13:12.102Z,19.59
2023-05-21T11:15:57.220Z,20.00
2023-05-21T11:18:24.524Z,19.49
2023-05-21T11:20:51.760Z,21.14
2023-05-21T11:23:21.224Z,22.07
2023-05-21T11:26:01.396Z,20.74
2023-05-21T11:28:34.421Z,20.52
2023-05-21T11:31:26.972Z,20.47
2023-05-21T11:34:22.178Z,19.97
2023-05-21T11:36:50.158Z,18.99
2023-05-21T11:39:22.537Z,19.07
2023-05-21T11:42:00.467Z,19.83
2023-05-21T11:44:42.669Z,20.91
2023-05-21T11:47:15.018Z,19.51
2023-05-21T11:49:42.403Z,19.40
2023-05-21T11:52:10.614Z,20.76
2023-05-21T11:54:43.222Z,19.85
2023-05-21T11:57:10.567Z,19.16
2023-05-21T11:59:37.395Z,18.93
2023-05-21T12:02:04.990Z,19.77
2023-05-21T12:04:36.414Z,19.29
2023-05-21T12:07:10.073Z,20.01
2023-05-21T12:09:40.991Z,19.82
2023-05-21T12:12:13.359Z,22.00
2023-05-21T12:14:40.437Z,22.87
2023-05-21T12:17:07.669Z,22.66
2023-05-21T12:19:35.664Z,25.45
2023-05-21T12:22:21.825Z,26.50
2023-05-21T12:25:04.449Z,26.04
2023-05-21T12:27:39.071Z,24.41
2023-05-21T12:30:14.650Z,22.67
2023-05-21T12:32:53.287Z,24.82
2023-05-21T12:35:24.555Z,26.52
2023-05-21T12:41:54.796Z,27.44
2023-05-21T12:55:35.704Z,27.68
2023-05-21T13:01:50.059Z,28.30
2023-05-21T13:04:19.594Z,27.90
2023-05-21T13:07:10.742Z,27.09
2023-05-21T13:09:37.269Z,27.75
2023-05-21T13:16:19.244Z,28.99
2023-05-21T13:25:35.196Z,28.35
2023-05-21T13:28:03.934Z,28.11
2023-05-21T13:30:30.837Z,28.85
2023-05-21T13:32:57.570Z,28.38
2023-05-21T13:35:24.311Z,29.50
2023-05-21T13:37:51.142Z,28.14
2023-05-21T13:40:18.124Z,28.34
2023-05-21T13:42:46.464Z,28.67
2023-05-21T13:45:16.377Z,30.04
2023-05-21T13:47:44.340Z,29.76
2023-05-21T13:50:11.318Z,30.01
2023-05-21T13:52:38.370Z,29.42
2023-05-21T13:55:05.914Z,28.70
2023-05-21T13:57:32.680Z,29.50
2023-05-21T14:00:00.079Z,30.08
2023-05-21T14:02:26.928Z,30.89
2023-05-21T14:04:54.007Z,30.65
2023-05-21T14:07:21.560Z,30.22
2023-05-21T14:09:48.332Z,29.69
2023-05-21T14:12:14.826Z,31.15
2023-05-21T14:14:42.090Z,30.35
2023-05-21T14:17:08.655Z,30.52
2023-05-21T14:19:35.459Z,30.91
2023-05-21T14:22:02.119Z,30.06
2023-05-21T14:24:28.680Z,30.24
2023-05-21T14:26:55.203Z,30.55
2023-05-21T14:29:21.768Z,31.29
2023-05-21T14:31:48.572Z,30.50
2023-05-21T14:34:15.188Z,31.67
2023-05-21T14:36:41.811Z,36.08
2023-05-21T14:39:08.354Z,36.66
2023-05-21T14:41:39.248Z,37.43
2023-05-21T14:44:05.769Z,37.93
2023-05-21T14:46:32.679Z,37.45
2023-05-21T14:49:00.524Z,37.93
2023-05-21T14:51:27.151Z,37.54
2023-05-21T14:53:53.720Z,37.42
2023-05-21T14:56:21.930Z,38.12
2023-05-21T14:58:48.706Z,37.88
2023-05-21T15:01:15.564Z,38.48
2023-05-21T15:03:42.207Z,39.06
2023-05-21T15:06:09.123Z,39.17
2023-05-21T15:08:35.874Z,38.54
2023-05-21T15:11:02.458Z,38.53
2023-05-21T15:13:29.106Z,39.93
2023-05-21T15:15:55.811Z,40.72
2023-05-21T15:18:24.676Z,39.99
2023-05-21T15:20:51.592Z,39.25
2023-05-21T15:23:18.231Z,39.32
2023-05-21T15:25:45.581Z,39.94
2023-05-21T15:28:12.672Z,40.65
2023-05-21T15:30:39.771Z,41.64
2023-05-21T15:33:06.560Z,41.72
2023-05-21T15:35:35.489Z,42.37
2023-05-21T15:38:02.736Z,43.11
2023-05-21T15:40:29.314Z,43.82
2023-05-21T15:42:55.835Z,44.17
2023-05-21T15:45:22.445Z,44.51
2023-05-21T15:47:48.981Z,44.99
2023-05-21T15:50:15.661Z,45.71
2023-05-21T15:52:42.807Z,46.00
2023-05-21T15:55:09.867Z,46.01
2023-05-21T15:57:36.446Z,45.96
2023-05-21T16:00:03.940Z,46.49
2023-05-21T16:02:30.681Z,45.78
2023-05-21T16:04:57.311Z,45.17
2023-05-21T16:07:24.667Z,45.53
2023-05-21T16:09:51.306Z,44.18
2023-05-21T16:12:18.151Z,44.99
2023-05-21T16:14:44.972Z,45.99
2023-05-21T16:17:11.654Z,47.44
2023-05-21T16:19:39.042Z,47.52
2023-05-21T16:22:05.866Z,48.13
2023-05-21T16:24:32.471Z,48.31
2023-05-21T16:26:59.051Z,48.46
2023-05-21T16:29:25.587Z,48.90
2023-05-21T16:31:52.176Z,49.17
2023-05-21T16:34:18.749Z,48.61
2023-05-21T16:36:45.434Z,48.64
2023-05-21T16:39:11.993Z,49.04
2023-05-21T16:41:38.530Z,49.10
2023-05-21T16:44:05.062Z,48.14
2023-05-21T16:46:31.677Z,48.93
2023-05-21T16:48:58.239Z,49.03
2023-05-21T16:51:24.872Z,48.73
2023-05-21T16:53:51.600Z,48.82
2023-05-21T16:56:18.299Z,48.85
2023-05-21T16:58:44.947Z,49.01
2023-05-21T17:01:11.629Z,48.95
2023-05-21T17:03:39.719Z,49.44
2023-05-21T17:06:07.595Z,49.05
2023-05-21T17:08:34.173Z,49.08
2023-05-21T17:11:00.933Z,49.87
2023-05-21T17:13:27.646Z,49.77
2023-05-21T17:15:54.284Z,49.93
2023-05-21T17:18:20.904Z,50.18
2023-05-21T17:20:47.486Z,50.32
2023-05-21T17:23:14.221Z,50.51
2023-05-21T17:25:41.299Z,51.11
2023-05-21T17:28:08.118Z,51.61
2023-05-21T17:30:34.764Z,50.84
2023-05-21T17:33:03.713Z,51.21
2023-05-21T17:35:30.511Z,51.49
2023-05-21T17:37:57.085Z,51.41
2023-05-21T17:40:24.700Z,51.41
2023-05-21T17:42:52.316Z,51.64
2023-05-21T17:45:19.046Z,52.01
2023-05-21T17:47:45.976Z,51.96
2023-05-21T17:50:12.690Z,53.44
2023-05-21T17:52:39.305Z,52.67
2023-05-21T17:55:06.250Z,53.19
2023-05-21T17:57:32.892Z,53.33
2023-05-21T17:59:59.471Z,53.55
2023-05-21T18:02:27.445Z,54.06
2023-05-21T18:04:54.147Z,54.29
2023-05-21T18:07:22.162Z,54.63
2023-05-21T18:09:48.768Z,54.86
2023-05-21T18:12:15.624Z,55.11
2023-05-21T18:14:42.187Z,55.67
2023-05-21T18:17:08.772Z,55.83
2023-05-21T18:19:35.390Z,56.04
2023-05-21T18:22:02.002Z,56.43
2023-05-21T18:24:28.611Z,57.07
2023-05-21T18:26:55.220Z,57.26
2023-05-21T18:29:21.758Z,57.63
2023-05-21T18:31:48.503Z,57.72
2023-05-21T18:34:16.811Z,58.30
2023-05-21T18:36:43.418Z,58.82
2023-05-21T18:39:10.233Z,59.86
2023-05-21T18:41:37.492Z,59.76
2023-05-21T18:44:06.034Z,60.08
2023-05-21T18:46:32.880Z,60.17
2023-05-21T18:49:00.502Z,61.20
2023-05-21T18:51:27.121Z,61.46
2023-05-21T18:53:53.725Z,61.69
2023-05-21T18:56:21.810Z,62.32
2023-05-21T18:58:48.613Z,63.07
2023-05-21T19:01:15.901Z,63.26
2023-05-21T19:03:42.593Z,63.97
2023-05-21T19:06:09.328Z,64.58
2023-05-21T19:08:35.895Z,64.30
2023-05-21T19:11:02.580Z,64.93
2023-05-21T19:13:29.500Z,65.45
2023-05-21T19:15:57.470Z,66.05
2023-05-21T19:18:30.202Z,66.19
2023-05-21T19:20:57.390Z,66.24
2023-05-21T19:23:24.822Z,67.47
2023-05-21T19:25:51.510Z,66.77
2023-05-21T19:28:18.786Z,67.57
2023-05-21T19:30:46.401Z,67.82
2023-05-21T19:33:13.604Z,68.64
2023-05-21T19:35:41.959Z,68.84
2023-05-21T19:38:11.408Z,68.90
2023-05-21T19:40:38.626Z,69.79
2023-05-21T19:43:05.562Z,69.81
2023-05-21T19:45:32.369Z,70.19
2023-05-21T19:47:59.807Z,70.88
2023-05-21T19:50:28.635Z,71.41
2023-05-21T19:52:57.294Z,72.22
2023-05-21T19:55:24.748Z,71.73
2023-05-21T19:57:51.550Z,72.29
2023-05-21T20:00:18.874Z,73.39
2023-05-21T20:02:46.008Z,72.90
2023-05-21T20:05:12.741Z,73.67
2023-05-21T20:07:39.636Z,73.70
2023-05-21T20:10:07.003Z,73.95
2023-05-21T20:12:33.600Z,73.40
2023-05-21T20:15:00.904Z,74.95
2023-05-21T20:17:28.669Z,74.75
2023-05-21T20:19:57.245Z,75.42
2023-05-21T20:22:23.850Z,76.21
2023-05-21T20:24:50.706Z,76.23
2023-05-21T20:27:19.488Z,77.14
2023-05-21T20:29:46.820Z,76.64
2023-05-21T20:32:13.473Z,76.98
2023-05-21T20:34:54.265Z,77.59
2023-05-21T20:37:29.192Z,77.82
2023-05-21T20:39:58.008Z,78.60
2023-05-21T20:42:28.786Z,79.95
2023-05-21T20:44:58.823Z,80.15
2023-05-21T20:47:29.695Z,79.67
2023-05-21T20:49:59.846Z,79.37
2023-05-21T20:52:26.820Z,81.00
2023-05-21T20:54:59.399Z,81.55
2023-05-21T20:57:28.358Z,82.22
2023-05-21T20:59:54.906Z,81.82
2023-05-21T21:02:22.868Z,82.14
2023-05-21T21:04:50.653Z,83.29
2023-05-21T21:07:20.777Z,84.03
2023-05-21T21:09:48.888Z,84.27
2023-05-21T21:12:25.796Z,84.23
2023-05-21T21:14:52.998Z,83.56
2023-05-21T21:17:19.642Z,84.52
2023-05-21T21:19:46.289Z,85.63
2023-05-21T21:22:12.990Z,86.04
2023-05-21T21:24:39.596Z,85.27
2023-05-21T21:27:06.697Z,86.42
2023-05-21T21:29:33.230Z,87.31
2023-05-21T21:31:59.818Z,87.32
2023-05-21T21:34:26.432Z,88.48
2023-05-21T21:36:54.062Z,88.22
2023-05-21T21:39:20.768Z,88.99
2023-05-21T21:41:47.430Z,88.87
2023-05-21T21:44:14.046Z,86.96
2023-05-21T21:46:40.827Z,88.99
2023-05-21T21:49:07.344Z,89.62
2023-05-21T21:51:34.122Z,89.51
2023-05-21T21:54:00.750Z,90.79
2023-05-21T21:56:27.366Z,90.30
2023-05-21T21:58:53.935Z,89.43
2023-05-21T22:01:20.619Z,90.36
2023-05-21T22:03:47.185Z,89.71
2023-05-21T22:06:13.762Z,89.37
2023-05-21T22:08:40.322Z,90.27
2023-05-21T22:11:07.123Z,89.37
2023-05-21T22:13:34.416Z,89.87
2023-05-21T22:16:02.050Z,90.32
2023-05-21T22:18:40.218Z,91.99
2023-05-21T22:21:09.784Z,91.65
2023-05-21T22:23:37.159Z,91.06
2023-05-21T22:26:03.882Z,90.54
2023-05-21T22:28:30.524Z,91.83
2023-05-21T22:30:57.298Z,92.80
2023-05-21T22:33:24.433Z,93.23
2023-05-21T22:35:51.171Z,95.76
2023-05-21T22:38:18.052Z,94.96
2023-05-21T22:40:44.704Z,96.07
2023-05-21T22:43:11.383Z,98.50
2023-05-21T22:45:38.397Z,98.79
2023-05-21T22:48:08.498Z,100.00
2023-05-21T22:50:36.081Z,100.00
2023-05-21T22:53:02.911Z,100.00
2023-05-21T22:55:29.580Z,100.00
2023-05-21T22:57:56.217Z,100.00
2023-05-21T23:00:22.952Z,100.00
2023-05-21T23:02:52.138Z,100.00
2023-05-21T23:05:20.505Z,100.00
2023-05-21T23:07:47.120Z,100.00
2023-05-21T23:10:13.683Z,100.00
2023-05-21T23:12:40.962Z,100.00
2023-05-21T23:15:09.747Z,100.00
2023-05-21T23:17:37.056Z,100.00
2023-05-21T23:20:04.085Z,100.00
2023-05-21T23:22:30.651Z,100.00
2023-05-21T23:24:57.242Z,100.00
2023-05-21T23:27:24.019Z,100.00
2023-05-21T23:29:50.698Z,100.00
2023-05-21T23:32:17.883Z,100.00
2023-05-21T23:34:44.734Z,100.00
2023-05-21T23:37:11.379Z,100.00
2023-05-21T23:39:38.049Z,100.00
2023-05-21T23:42:04.978Z,100.00
2023-05-21T23:44:31.531Z,100.00
2023-05-21T23:46:58.142Z,100.00
2023-05-21T23:49:24.689Z,100.00
2023-05-21T23:51:51.446Z,100.00
2023-05-21T23:54:18.186Z,100.00
2023-05-21T23:56:45.381Z,100.00
2023-05-21T23:59:12.050Z,100.00
